Terminal Aerodrome Forecast
Issued by NWS

Home | Current Version | Previous Version | Text Only | Print | Product List | Glossary On
Versions: 1 2 3 4 5 6 7 8 9 10 11 12 13 14 15
875
FTUS41 KCAR 221727
TAFPQI
TAF
KPQI 221727Z 2218/2318 26008KT P6SM OVC026
     FM222300 00000KT P6SM BKN050
     FM230800 00000KT P6SM BKN025
     FM231300 VRB03KT P6SM OVC015
     FM231400 VRB03KT P6SM OVC008=

USA.gov is the U.S. government's official web portal to all federal, state and local government web resources and services.